Strilborg — LIZB — position and weather

sailwx.info

Track history (hours):
 
Tides and Currents Weather Stations Pressure Air Temp Water Temp Dewpoint Dewpoint Depression Visibility Wind Speed Wind Dir Waves Ship Positions

Strilborg

Last reported at 2018-Jul-18 14:30 UTC. Time now 2018-Jul-18 14:40 UTC.
Position N 69°27' E 018°07'.

Length 75 m; draft 5.5 m.

Type: Tug. MMSI: 259469000.

Date/timePositionNaut miles runAvg speedWind from/ knotsBaromVisibWave heightAir tempDewpointWater temp
2018-Jul-18 14:30N 69°27' E 018°07'6 6.1
2018-Jul-18 13:30N 69°30' E 018°21'3 6.3
2018-Jul-18 13:00N 69°32' E 018°29'4 7.0
2018-Jul-18 12:30N 69°33' E 018°39'3 6.5
2018-Jul-18 12:00N 69°34' E 018°47'4 8.1
2018-Jul-18 11:30N 69°38' E 018°53'7 7.6
2018-Jul-18 10:30N 69°44' E 019°02'4 7.6
2018-Jul-18 10:00N 69°47' E 019°11'4 8.0
2018-Jul-18 09:30N 69°48' E 019°22'4 7.8
2018-Jul-18 09:00N 69°49' E 019°32'5 9.3
2018-Jul-18 08:30N 69°50' E 019°46'2 4.8
2018-Jul-18 08:00N 69°50' E 019°52'0 0.9
2018-Jul-18 07:30N 69°51' E 019°52'0 0.3
2018-Jul-18 07:00N 69°51' E 019°52'1 1.5
2018-Jul-18 06:30N 69°51' E 019°54'1 1.0
2018-Jul-18 05:59N 69°50' E 019°53'0 0.8
2018-Jul-18 05:29N 69°50' E 019°52'3 5.2
2018-Jul-18 05:00N 69°52' E 019°56'3 6.4
2018-Jul-18 04:30N 69°55' E 020°02'3 6.4
2018-Jul-18 04:00N 69°57' E 020°09'3 6.2
2018-Jul-18 03:30N 69°59' E 020°16'3 6.7
2018-Jul-18 03:01N 69°60' E 020°25'3 6.4
2018-Jul-18 02:30N 70°01' E 020°34'4 7.4
2018-Jul-18 02:00N 70°02' E 020°44'4 7.5
2018-Jul-18 01:30N 70°04' E 020°54'4 7.7
2018-Jul-18 01:00N 70°07' E 021°00'4 8.3
2018-Jul-18 00:29N 70°11' E 021°05'4 8.1
2018-Jul-18 00:00N 70°14' E 021°11'4 8.3
2018-Jul-17 23:30N 70°17' E 021°21'4 8.1
2018-Jul-17 23:00N 70°20' E 021°30'4 8.0
2018-Jul-17 22:30N 70°23' E 021°38'4 7.1
2018-Jul-17 22:00N 70°23' E 021°49'4 8.2
2018-Jul-17 21:30N 70°21' E 021°59'4 8.1
2018-Jul-17 20:59N 70°19' E 022°10'4 8.4
2018-Jul-17 20:30N 70°17' E 022°20'4 8.1
2018-Jul-17 20:00N 70°16' E 022°32'4 8.1
2018-Jul-17 19:30N 70°14' E 022°43'4 8.3
2018-Jul-17 18:59N 70°14' E 022°55'4 8.0
2018-Jul-17 18:28N 70°15' E 023°07'4 8.1
2018-Jul-17 18:00N 70°17' E 023°17'3 5.8
2018-Jul-17 17:29N 70°19' E 023°23'2 5.1
2018-Jul-17 17:00N 70°21' E 023°28'2 3.2
2018-Jul-17 16:30N 70°22' E 023°30'4 8.2
2018-Jul-17 16:00N 70°26' E 023°38'4 7.4
2018-Jul-17 15:30N 70°29' E 023°41'4 8.1
2018-Jul-17 14:59N 70°33' E 023°38'4 8.3
2018-Jul-17 14:30N 70°37' E 023°36'3 6.6
2018-Jul-17 14:00N 70°40' E 023°41'0 0.0
2018-Jul-17 13:30N 70°40' E 023°41'0 0.0
2018-Jul-17 13:00N 70°40' E 023°41'0 0.0
2018-Jul-17 12:30N 70°40' E 023°41'0 0.0
2018-Jul-17 11:59N 70°40' E 023°41'0 0.0
2018-Jul-17 11:30N 70°40' E 023°41'0 0.1
2018-Jul-17 11:00N 70°40' E 023°41'3 6.0
2018-Jul-17 10:30N 70°41' E 023°32'4 8.1
2018-Jul-17 09:58N 70°45' E 023°26'0 0.0
2018-Jul-17 09:28N 70°45' E 023°26'0 0.0
2018-Jul-17 08:58N 70°45' E 023°26'0 0.0
2018-Jul-17 08:28N 70°45' E 023°26'0 0.1
2018-Jul-17 07:58N 70°45' E 023°26'0 0.1
2018-Jul-17 07:28N 70°45' E 023°26'0 0.0
2018-Jul-17 06:58N 70°45' E 023°26'0 0.0
2018-Jul-17 06:28N 70°45' E 023°26'0 0.0
2018-Jul-17 05:58N 70°45' E 023°26'0 0.0
2018-Jul-17 05:28N 70°45' E 023°26'0 0.0
2018-Jul-17 04:58N 70°45' E 023°26'0 0.0
2018-Jul-17 04:28N 70°45' E 023°26'0 0.0
2018-Jul-17 03:58N 70°45' E 023°26'0 0.0
2018-Jul-17 03:28N 70°45' E 023°26'0 0.0
2018-Jul-17 02:58N 70°45' E 023°26'0 0.0
2018-Jul-17 02:28N 70°45' E 023°26'0 0.0
2018-Jul-17 01:58N 70°45' E 023°26'0 0.0
2018-Jul-17 01:28N 70°45' E 023°26'0 0.0
2018-Jul-17 00:58N 70°45' E 023°26'0 0.0
2018-Jul-17 00:28N 70°45' E 023°26'0 0.0
2018-Jul-16 23:28N 70°45' E 023°26'0 0.0
2018-Jul-16 22:58N 70°45' E 023°26'0 0.0
2018-Jul-16 22:28N 70°45' E 023°26'0 0.0
2018-Jul-16 21:58N 70°45' E 023°26'0 0.0
2018-Jul-16 21:28N 70°45' E 023°26'0 0.0
2018-Jul-16 20:58N 70°45' E 023°26'0 0.0
2018-Jul-16 20:28N 70°45' E 023°26'0 0.0
2018-Jul-16 19:58N 70°45' E 023°26'0 0.0
2018-Jul-16 19:28N 70°45' E 023°26'0 0.1
2018-Jul-16 19:00N 70°45' E 023°26'0 0.0
2018-Jul-16 18:30N 70°45' E 023°26'3 6.4
2018-Jul-16 18:00N 70°47' E 023°34'4 8.7
2018-Jul-16 17:30N 70°49' E 023°45'4 8.2
2018-Jul-16 17:01N 70°51' E 023°55'4 7.5
2018-Jul-16 16:30N 70°53' E 024°05'3 6.5
2018-Jul-16 16:00N 70°55' E 024°13'4 7.3
2018-Jul-16 15:30N 70°58' E 024°20'4 7.6
2018-Jul-16 15:00N 71°01' E 024°29'3 6.4
2018-Jul-16 14:31N 71°01' E 024°38'4 6.9
2018-Jul-16 14:00N 71°00' E 024°49'4 7.5
2018-Jul-16 13:30N 70°59' E 024°60'4 8.0
2018-Jul-16 13:01N 70°60' E 025°12'4 7.4
2018-Jul-16 12:30N 70°59' E 025°23'4 7.3
2018-Jul-16 12:00N 70°56' E 025°31'4 8.0
2018-Jul-16 11:30N 70°55' E 025°43'1 1.9
2018-Jul-16 10:58N 70°54' E 025°44'0 0.0
2018-Jul-16 10:31N 70°54' E 025°44'0 0.1
2018-Jul-16 10:01N 70°54' E 025°44'0 0.0
2018-Jul-16 09:30N 70°54' E 025°44'0 0.0
2018-Jul-16 09:00N 70°54' E 025°44'0 0.0
2018-Jul-16 08:30N 70°54' E 025°44'0 0.0
2018-Jul-16 08:00N 70°54' E 025°44'0 0.0
2018-Jul-16 07:30N 70°54' E 025°44'0 0.0
2018-Jul-16 07:00N 70°54' E 025°44'0 0.1
2018-Jul-16 06:30N 70°54' E 025°44'0 0.0
2018-Jul-16 06:00N 70°54' E 025°44'0 0.0
2018-Jul-16 05:30N 70°54' E 025°44'0 0.0
2018-Jul-16 05:00N 70°54' E 025°44'0 0.0
2018-Jul-16 04:30N 70°54' E 025°44'0 0.0
2018-Jul-16 04:00N 70°54' E 025°44'0 0.0
2018-Jul-16 03:30N 70°54' E 025°44'0 0.0
2018-Jul-16 03:00N 70°54' E 025°44'0 0.0
2018-Jul-16 02:30N 70°54' E 025°44'0 0.0
2018-Jul-16 02:00N 70°54' E 025°44'0 0.0
2018-Jul-16 01:30N 70°54' E 025°44'0 0.1
2018-Jul-16 01:00N 70°54' E 025°44'0 0.0
2018-Jul-16 00:30N 70°54' E 025°44'0 0.1
2018-Jul-15 23:57N 70°54' E 025°44'0 0.0
2018-Jul-15 23:30N 70°54' E 025°44'0 0.0
2018-Jul-15 23:00N 70°54' E 025°44'0 0.0
2018-Jul-15 22:30N 70°54' E 025°44'0 0.0
2018-Jul-15 22:00N 70°54' E 025°44'0 0.0
2018-Jul-15 21:30N 70°54' E 025°44'0 0.0
2018-Jul-15 21:00N 70°54' E 025°44'0 0.0
2018-Jul-15 20:30N 70°54' E 025°44'0 0.0
2018-Jul-15 20:00N 70°54' E 025°44'0 0.0
2018-Jul-15 19:30N 70°54' E 025°44'0 0.0
2018-Jul-15 19:00N 70°54' E 025°44'0 0.0
2018-Jul-15 18:30N 70°54' E 025°44'0 0.0
2018-Jul-15 18:00N 70°54' E 025°44'0 0.0
2018-Jul-15 17:30N 70°54' E 025°44'0 0.0
2018-Jul-15 17:00N 70°54' E 025°44'0 0.0
2018-Jul-15 16:30N 70°54' E 025°44'0 0.0
2018-Jul-15 16:00N 70°54' E 025°44'0 0.0
2018-Jul-15 15:30N 70°54' E 025°44'0 0.0
2018-Jul-15 15:00N 70°54' E 025°44'0 0.0
2018-Jul-15 14:30N 70°54' E 025°44'0 0.0
2018-Jul-15 14:00N 70°54' E 025°44'0 0.0
2018-Jul-15 13:30N 70°54' E 025°44'0 0.0
2018-Jul-15 13:00N 70°54' E 025°44'0 0.0
2018-Jul-15 12:30N 70°54' E 025°44'0 0.0
2018-Jul-15 12:00N 70°54' E 025°44'0 0.0
2018-Jul-15 11:30N 70°54' E 025°44'0 0.0
2018-Jul-15 11:00N 70°54' E 025°44'0 0.0
2018-Jul-15 10:30N 70°54' E 025°44'0 0.0
2018-Jul-15 10:00N 70°54' E 025°44'0 0.0
2018-Jul-15 09:30N 70°54' E 025°44'0 0.0
2018-Jul-15 09:00N 70°54' E 025°44'0 0.0
2018-Jul-15 08:30N 70°54' E 025°44'0 0.0
2018-Jul-15 08:00N 70°54' E 025°44'0 0.0
2018-Jul-15 07:30N 70°54' E 025°44'0 0.0
2018-Jul-15 07:00N 70°54' E 025°44'0 0.0
2018-Jul-15 06:30N 70°54' E 025°44'0 0.0
2018-Jul-15 06:00N 70°54' E 025°44'0 0.0
2018-Jul-15 05:30N 70°54' E 025°44'0 0.0
2018-Jul-15 05:00N 70°54' E 025°44'0 0.0
2018-Jul-15 04:30N 70°54' E 025°44'0 0.0
2018-Jul-15 04:00N 70°54' E 025°44'0 0.0
2018-Jul-15 03:30N 70°54' E 025°44'0 0.0
2018-Jul-15 02:59N 70°54' E 025°44'0 0.0
2018-Jul-15 02:29N 70°54' E 025°44'0 0.0
2018-Jul-15 01:59N 70°54' E 025°44'0 0.0
2018-Jul-15 01:29N 70°54' E 025°44'0 0.0
2018-Jul-15 00:59N 70°54' E 025°44'0 0.0
2018-Jul-15 00:29N 70°54' E 025°44'0 0.0
2018-Jul-14 23:59N 70°54' E 025°44'0 0.0
2018-Jul-14 23:29N 70°54' E 025°44'0 0.0
2018-Jul-14 22:59N 70°54' E 025°44'0 0.0
2018-Jul-14 22:29N 70°54' E 025°44'0 0.0
2018-Jul-14 21:59N 70°54' E 025°44'0 0.0
2018-Jul-14 21:29N 70°54' E 025°44'0 0.0
2018-Jul-14 20:59N 70°54' E 025°44'0 0.0
2018-Jul-14 20:29N 70°54' E 025°44'0 0.0
2018-Jul-14 19:59N 70°54' E 025°44'0 0.0
2018-Jul-14 19:29N 70°54' E 025°44'0 0.0
2018-Jul-14 18:59N 70°54' E 025°44'0 0.0
2018-Jul-14 18:29N 70°54' E 025°44'0 0.0
2018-Jul-14 17:59N 70°54' E 025°44'0 0.0
2018-Jul-14 17:29N 70°54' E 025°44'0 0.0
2018-Jul-14 16:59N 70°54' E 025°44'0 0.0
2018-Jul-14 16:29N 70°54' E 025°44'0 0.0
2018-Jul-14 15:59N 70°54' E 025°44'0 0.0
2018-Jul-14 15:29N 70°54' E 025°44'0 0.0
2018-Jul-14 14:59N 70°54' E 025°44'0 0.0
2018-Jul-14 14:29N 70°54' E 025°44'0 0.1
2018-Jul-14 13:29N 70°54' E 025°44'0 0.0
2018-Jul-14 12:59N 70°54' E 025°44'0 0.0
2018-Jul-14 12:29N 70°54' E 025°44'0 0.0
2018-Jul-14 11:59N 70°54' E 025°44'0 0.0
2018-Jul-14 11:29N 70°54' E 025°44'0 0.0
2018-Jul-14 10:59N 70°54' E 025°44'0 0.0
2018-Jul-14 10:29N 70°54' E 025°44'0 0.0
2018-Jul-14 09:59N 70°54' E 025°44'0 0.0
2018-Jul-14 09:29N 70°54' E 025°44'0 0.0
2018-Jul-14 08:59N 70°54' E 025°44'0 0.0
2018-Jul-14 08:29N 70°54' E 025°44'0 0.0
2018-Jul-14 07:59N 70°54' E 025°44'0 0.0
2018-Jul-14 07:29N 70°54' E 025°44'0 0.0
2018-Jul-14 06:59N 70°54' E 025°44'0 0.0
2018-Jul-14 06:29N 70°54' E 025°44'0 0.0
2018-Jul-14 05:59N 70°54' E 025°44'0 0.0
2018-Jul-14 05:29N 70°54' E 025°44'0 0.0
2018-Jul-14 04:59N 70°54' E 025°44'0 0.1
2018-Jul-14 04:29N 70°54' E 025°44'0 0.0
2018-Jul-14 03:59N 70°54' E 025°44'0 0.0
2018-Jul-14 03:29N 70°54' E 025°44'0 0.0
2018-Jul-14 02:59N 70°54' E 025°44'0 0.0
2018-Jul-14 02:29N 70°54' E 025°44'0 0.0
2018-Jul-14 01:59N 70°54' E 025°44'0 0.0
2018-Jul-14 01:29N 70°54' E 025°44'0 0.0
2018-Jul-14 00:59N 70°54' E 025°44'0 0.0
2018-Jul-14 00:29N 70°54' E 025°44'0 0.0
2018-Jul-13 23:59N 70°54' E 025°44'0 0.0
2018-Jul-13 23:29N 70°54' E 025°44'0 0.0
2018-Jul-13 22:59N 70°54' E 025°44'0 0.0
2018-Jul-13 22:29N 70°54' E 025°44'0 0.0
2018-Jul-13 21:59N 70°54' E 025°44'0 0.0
2018-Jul-13 21:29N 70°54' E 025°44'0 0.0
2018-Jul-13 20:59N 70°54' E 025°44'0 0.0
2018-Jul-13 20:28N 70°54' E 025°44'0 0.0
2018-Jul-13 19:58N 70°54' E 025°44'0 0.0
2018-Jul-13 19:28N 70°54' E 025°44'0 0.0
2018-Jul-13 18:58N 70°54' E 025°44'0 0.0
2018-Jul-13 18:28N 70°54' E 025°44'0 0.0
2018-Jul-13 17:58N 70°54' E 025°44'0 0.0
2018-Jul-13 17:28N 70°54' E 025°44'0 0.0
2018-Jul-13 16:58N 70°54' E 025°44'0 0.0
2018-Jul-13 16:28N 70°54' E 025°44'0 0.0
2018-Jul-13 15:58N 70°54' E 025°44'0 0.7
2018-Jul-13 15:30N 70°54' E 025°45'5 9.2
2018-Jul-13 14:59N 70°57' E 025°56'9 8.9
2018-Jul-13 13:59N 71°03' E 026°15'5 9.8
2018-Jul-13 13:30N 71°08' E 026°14'0 0.8
2018-Jul-13 12:58N 71°08' E 026°13'0 0.3
2018-Jul-13 12:30N 71°08' E 026°13'0 0.0
2018-Jul-13 12:00N 71°08' E 026°13'0 0.5
2018-Jul-13 11:29N 71°08' E 026°14'0 0.6
2018-Jul-13 11:00N 71°08' E 026°14'0 0.7
2018-Jul-13 10:30N 71°08' E 026°13'0 0.6
2018-Jul-13 10:00N 71°08' E 026°14'0 0.1
2018-Jul-13 09:29N 71°08' E 026°14'0 0.8
2018-Jul-13 09:00N 71°08' E 026°15'0 0.8
2018-Jul-13 08:30N 71°08' E 026°14'0 0.1
2018-Jul-13 08:00N 71°08' E 026°13'2 4.7
2018-Jul-13 07:30N 71°09' E 026°06'3 6.2
2018-Jul-13 07:00N 71°09' E 025°57'2 4.7
2018-Jul-13 06:30N 71°07' E 025°52'0 0.0
2018-Jul-13 06:00N 71°07' E 025°52'0 0.0
2018-Jul-13 05:30N 71°07' E 025°52'0 0.0
2018-Jul-13 05:00N 71°07' E 025°52'0 0.0
2018-Jul-13 04:29N 71°07' E 025°52'0 0.0
2018-Jul-13 04:00N 71°07' E 025°52'0 0.0
2018-Jul-13 03:28N 71°07' E 025°52'0 0.0
2018-Jul-13 02:58N 71°07' E 025°52'0 0.0
2018-Jul-13 02:30N 71°07' E 025°52'0 0.0
2018-Jul-13 01:59N 71°07' E 025°52'0 0.0
2018-Jul-13 01:30N 71°07' E 025°52'0 0.0
2018-Jul-13 01:00N 71°07' E 025°52'0 0.0
2018-Jul-13 00:30N 71°07' E 025°52'0 0.0
2018-Jul-13 00:00N 71°07' E 025°52'0 0.0
2018-Jul-12 23:30N 71°07' E 025°52'0 0.0
2018-Jul-12 23:00N 71°07' E 025°52'0 0.0
2018-Jul-12 22:30N 71°07' E 025°52'0 0.0
2018-Jul-12 22:00N 71°07' E 025°52'0 0.0
2018-Jul-12 21:29N 71°07' E 025°52'1 1.6
2018-Jul-12 20:59N 71°08' E 025°53'4 8.4
2018-Jul-12 20:30N 71°11' E 025°48'4 8.4
2018-Jul-12 20:00N 71°14' E 025°39'4 8.0
2018-Jul-12 19:30N 71°17' E 025°30'4 8.4
2018-Jul-12 19:00N 71°19' E 025°19'4 8.5
2018-Jul-12 18:30N 71°21' E 025°07'4 7.5
2018-Jul-12 17:59N 71°19' E 024°57'4 8.9
2018-Jul-12 17:30N 71°15' E 024°50'4 9.0
2018-Jul-12 17:00N 71°11' E 024°43'4 8.6
2018-Jul-12 16:29N 71°08' E 024°35'4 8.6
2018-Jul-12 15:59N 71°04' E 024°29'4 8.6
2018-Jul-12 15:30N 71°00' E 024°23'4 8.4
2018-Jul-12 15:00N 70°57' E 024°16'4 8.9
2018-Jul-12 14:31N 70°54' E 024°07'4 8.6
2018-Jul-12 14:01N 70°51' E 023°57'4 8.3
2018-Jul-12 13:31N 70°48' E 023°47'5 8.6
2018-Jul-12 12:59N 70°45' E 023°37'4 9.2
2018-Jul-12 12:30N 70°40' E 023°33'3 6.9
2018-Jul-12 12:00N 70°37' E 023°38'0 0.3
2018-Jul-12 11:28N 70°38' E 023°38'0 0.0
2018-Jul-12 10:58N 70°38' E 023°38'0 0.0
2018-Jul-12 10:28N 70°38' E 023°38'0 0.0
2018-Jul-12 09:58N 70°38' E 023°38'0 0.0
2018-Jul-12 09:28N 70°38' E 023°38'0 0.0
2018-Jul-12 08:58N 70°38' E 023°38'0 0.0
2018-Jul-12 08:28N 70°38' E 023°38'0 0.0
2018-Jul-12 07:58N 70°38' E 023°38'0 0.0
2018-Jul-12 07:28N 70°38' E 023°38'0 0.0
2018-Jul-12 06:58N 70°38' E 023°38'0 0.0
2018-Jul-12 06:28N 70°38' E 023°38'0 0.0
2018-Jul-12 05:58N 70°38' E 023°38'0 0.0
2018-Jul-12 05:28N 70°38' E 023°38'0 0.0
2018-Jul-12 04:58N 70°38' E 023°38'0 0.0
2018-Jul-12 04:28N 70°38' E 023°38'0 0.0
2018-Jul-12 03:58N 70°38' E 023°38'0 0.0
2018-Jul-12 03:28N 70°38' E 023°38'0 0.0
2018-Jul-12 02:58N 70°38' E 023°38'0 0.0
2018-Jul-12 02:28N 70°38' E 023°38'0 0.0
2018-Jul-12 01:58N 70°38' E 023°38'0 0.0
2018-Jul-12 01:28N 70°38' E 023°38'0 0.0
2018-Jul-12 00:58N 70°38' E 023°38'0 0.0
2018-Jul-12 00:28N 70°38' E 023°38'0 0.0
2018-Jul-11 23:58N 70°38' E 023°38'0 0.0
2018-Jul-11 23:28N 70°38' E 023°38'0 0.0
2018-Jul-11 22:58N 70°38' E 023°38'0 0.0
2018-Jul-11 22:28N 70°38' E 023°38'0 0.0
2018-Jul-11 22:01N 70°38' E 023°38'0 0.0
2018-Jul-11 21:30N 70°38' E 023°38'0 0.0
2018-Jul-11 21:00N 70°38' E 023°38'0 0.0
2018-Jul-11 20:30N 70°38' E 023°38'0 0.0
2018-Jul-11 20:00N 70°38' E 023°38'0 0.0
2018-Jul-11 19:30N 70°38' E 023°38'0 0.0
2018-Jul-11 19:00N 70°38' E 023°38'0 0.0
2018-Jul-11 18:30N 70°38' E 023°38'0 0.0
2018-Jul-11 18:00N 70°38' E 023°38'0 0.0
2018-Jul-11 17:30N 70°38' E 023°38'0 0.0
2018-Jul-11 17:00N 70°38' E 023°38'0 0.0
2018-Jul-11 16:30N 70°38' E 023°38'0 0.0
2018-Jul-11 16:00N 70°38' E 023°38'3 6.6
2018-Jul-11 15:30N 70°34' E 023°37'2 3.1
2018-Jul-11 14:58N 70°33' E 023°38'1 1.4
2018-Jul-11 14:30N 70°32' E 023°38'1 1.2
2018-Jul-11 14:00N 70°33' E 023°38'1 2.0
2018-Jul-11 13:30N 70°34' E 023°37'1 1.3
2018-Jul-11 13:00N 70°33' E 023°37'1 1.9
2018-Jul-11 12:30N 70°32' E 023°38'1 1.3
2018-Jul-11 12:00N 70°32' E 023°38'1 1.6
2018-Jul-11 11:30N 70°31' E 023°39'1 2.0
2018-Jul-11 11:00N 70°30' E 023°41'1 2.0
2018-Jul-11 10:30N 70°29' E 023°42'1 1.3
2018-Jul-11 10:00N 70°28' E 023°42'1 2.3
2018-Jul-11 09:29N 70°30' E 023°41'1 1.8
2018-Jul-11 08:59N 70°30' E 023°40'1 1.5
2018-Jul-11 08:30N 70°31' E 023°39'1 2.0
2018-Jul-11 08:00N 70°32' E 023°39'1 2.8
2018-Jul-11 07:30N 70°33' E 023°38'1 1.7
2018-Jul-11 07:00N 70°34' E 023°37'2 4.8
2018-Jul-11 06:30N 70°36' E 023°35'2 3.0
2018-Jul-11 06:00N 70°38' E 023°38'0 0.0
2018-Jul-11 05:30N 70°38' E 023°38'0 0.0
2018-Jul-11 05:00N 70°38' E 023°38'0 0.0
2018-Jul-11 04:30N 70°38' E 023°38'0 0.0
2018-Jul-11 04:00N 70°38' E 023°38'0 0.0
2018-Jul-11 03:30N 70°38' E 023°38'0 0.0
2018-Jul-11 03:00N 70°38' E 023°38'0 0.0
2018-Jul-11 02:30N 70°38' E 023°38'0 0.0
2018-Jul-11 02:00N 70°38' E 023°38'0 0.0
2018-Jul-11 01:30N 70°38' E 023°38'0 0.0
2018-Jul-11 01:00N 70°38' E 023°38'0 0.0
2018-Jul-11 00:30N 70°38' E 023°38'0 0.0
2018-Jul-11 00:00N 70°38' E 023°38'0 0.0
2018-Jul-10 23:30N 70°38' E 023°38'0 0.0
2018-Jul-10 23:00N 70°38' E 023°38'0 0.0
2018-Jul-10 22:30N 70°38' E 023°38'0 0.0
2018-Jul-10 21:59N 70°38' E 023°38'0 0.0
2018-Jul-10 21:29N 70°38' E 023°38'0 0.0
2018-Jul-10 20:59N 70°38' E 023°38'0 0.0
2018-Jul-10 20:29N 70°38' E 023°38'0 0.0
2018-Jul-10 19:59N 70°38' E 023°38'0 0.0
2018-Jul-10 19:29N 70°38' E 023°38'0 0.0
2018-Jul-10 18:59N 70°38' E 023°38'0 0.0
2018-Jul-10 18:29N 70°38' E 023°38'0 0.0
2018-Jul-10 17:59N 70°38' E 023°38'0 0.0
2018-Jul-10 17:29N 70°38' E 023°38'0 0.0
2018-Jul-10 16:59N 70°38' E 023°38'0 0.0
2018-Jul-10 16:29N 70°38' E 023°38'0 0.0
2018-Jul-10 15:59N 70°38' E 023°38'0 0.0
2018-Jul-10 15:29N 70°38' E 023°38'0 0.0
2018-Jul-10 14:59N 70°38' E 023°38'0 0.0
2018-Jul-10 14:29N 70°38' E 023°38'0 0.0
2018-Jul-10 13:59N 70°38' E 023°38'0 0.0
2018-Jul-10 13:29N 70°38' E 023°38'0 0.0
2018-Jul-10 12:59N 70°38' E 023°38'3 5.2
2018-Jul-10 12:31N 70°35' E 023°37'3 6.5
2018-Jul-10 12:00N 70°32' E 023°40'1 1.9
2018-Jul-10 11:30N 70°33' E 023°39'1 1.2
2018-Jul-10 11:00N 70°34' E 023°38'1 1.8
2018-Jul-10 10:30N 70°34' E 023°37'0 0.4
2018-Jul-10 09:59N 70°35' E 023°37'3 6.3
2018-Jul-10 09:30N 70°38' E 023°38'0 0.0
2018-Jul-10 09:00N 70°38' E 023°38'0 0.0
2018-Jul-10 08:30N 70°38' E 023°38'0 0.0
2018-Jul-10 08:00N 70°38' E 023°38'0 0.0
2018-Jul-10 07:30N 70°38' E 023°38'0 0.0
2018-Jul-10 07:00N 70°38' E 023°38'0 0.0
2018-Jul-10 06:30N 70°38' E 023°38'0 0.0
2018-Jul-10 06:00N 70°38' E 023°38'0 0.0
2018-Jul-10 05:30N 70°38' E 023°38'0 0.0
2018-Jul-10 05:00N 70°38' E 023°38'0 0.0
2018-Jul-10 04:30N 70°38' E 023°38'0 0.0
2018-Jul-10 04:00N 70°38' E 023°38'0 0.0
2018-Jul-10 03:30N 70°38' E 023°38'0 0.0
2018-Jul-10 03:00N 70°38' E 023°38'0 0.0
2018-Jul-10 02:30N 70°38' E 023°38'0 0.0
2018-Jul-10 02:00N 70°38' E 023°38'0 0.0
2018-Jul-10 01:30N 70°38' E 023°38'0 0.0
2018-Jul-10 01:00N 70°38' E 023°38'0 0.0
2018-Jul-10 00:30N 70°38' E 023°38'0 0.0
2018-Jul-10 00:00N 70°38' E 023°38'0 0.0
2018-Jul-09 23:30N 70°38' E 023°38'0 0.0
2018-Jul-09 23:00N 70°38' E 023°38'0 0.0
2018-Jul-09 22:30N 70°38' E 023°38'0 0.0
2018-Jul-09 22:00N 70°38' E 023°38'0 0.0
2018-Jul-09 21:30N 70°38' E 023°38'0 0.0
2018-Jul-09 21:00N 70°38' E 023°38'0 0.0
2018-Jul-09 20:30N 70°38' E 023°38'0 0.0
2018-Jul-09 20:00N 70°38' E 023°38'0 0.0
2018-Jul-09 19:30N 70°38' E 023°38'0 0.0
2018-Jul-09 19:00N 70°38' E 023°38'0 0.0
2018-Jul-09 18:30N 70°38' E 023°38'0 0.0
2018-Jul-09 18:00N 70°38' E 023°38'0 0.0
2018-Jul-09 17:30N 70°38' E 023°38'0 0.0
2018-Jul-09 17:00N 70°38' E 023°38'0 0.0
2018-Jul-09 16:30N 70°38' E 023°38'1 1.6
2018-Jul-09 16:00N 70°37' E 023°37'5 9.8
2018-Jul-09 15:30N 70°41' E 023°30'4 7.2
2018-Jul-09 14:59N 70°45' E 023°26'0 0.0
2018-Jul-09 14:29N 70°45' E 023°26'0 0.0
2018-Jul-09 13:59N 70°45' E 023°26'0 0.0
2018-Jul-09 13:29N 70°45' E 023°26'0 0.0
2018-Jul-09 12:59N 70°45' E 023°26'0 0.0
2018-Jul-09 12:29N 70°45' E 023°26'0 0.0
2018-Jul-09 11:59N 70°45' E 023°26'0 0.0
2018-Jul-09 11:29N 70°45' E 023°26'0 0.0
2018-Jul-09 10:59N 70°45' E 023°26'0 0.0
2018-Jul-09 10:29N 70°45' E 023°26'0 0.0
2018-Jul-09 09:59N 70°45' E 023°26'0 0.0
2018-Jul-09 09:29N 70°45' E 023°26'0 0.0
2018-Jul-09 08:59N 70°45' E 023°26'0 0.0
2018-Jul-09 08:29N 70°45' E 023°26'0 0.0
2018-Jul-09 07:59N 70°45' E 023°26'0 0.0
2018-Jul-09 07:29N 70°45' E 023°26'0 0.0
2018-Jul-09 06:59N 70°45' E 023°26'0 0.0
2018-Jul-09 06:29N 70°45' E 023°26'0 0.0
2018-Jul-09 05:59N 70°45' E 023°26'0 0.0
2018-Jul-09 05:29N 70°45' E 023°26'0 0.0
2018-Jul-09 04:59N 70°45' E 023°26'0 0.0
2018-Jul-09 04:29N 70°45' E 023°26'0 0.0
2018-Jul-09 03:59N 70°45' E 023°26'0 0.0
2018-Jul-09 03:29N 70°45' E 023°26'0 0.0
2018-Jul-09 02:59N 70°45' E 023°26'0 0.0
2018-Jul-09 02:28N 70°45' E 023°26'0 0.0
2018-Jul-09 01:58N 70°45' E 023°26'0 0.0
2018-Jul-09 01:28N 70°45' E 023°26'0 0.1
2018-Jul-09 00:58N 70°45' E 023°26'0 0.0
2018-Jul-09 00:28N 70°45' E 023°26'0 0.0
2018-Jul-08 23:58N 70°45' E 023°26'0 0.0
2018-Jul-08 23:28N 70°45' E 023°26'0 0.0
2018-Jul-08 22:58N 70°45' E 023°26'0 0.0
2018-Jul-08 22:28N 70°45' E 023°26'0 0.0
2018-Jul-08 21:58N 70°45' E 023°26'0 0.0
2018-Jul-08 21:28N 70°45' E 023°26'0 0.0
2018-Jul-08 20:58N 70°45' E 023°26'0 0.0
2018-Jul-08 20:28N 70°45' E 023°26'0 0.0
2018-Jul-08 19:58N 70°45' E 023°26'0 0.0
2018-Jul-08 19:28N 70°45' E 023°26'0 0.0
2018-Jul-08 18:58N 70°45' E 023°26'0 0.0
2018-Jul-08 18:28N 70°45' E 023°26'0 0.0
2018-Jul-08 17:58N 70°45' E 023°26'0 0.0
2018-Jul-08 17:25N 70°45' E 023°26'0 0.0
2018-Jul-08 16:58N 70°45' E 023°26'0 0.0
2018-Jul-08 16:28N 70°45' E 023°26'0 0.0
2018-Jul-08 15:58N 70°45' E 023°26'0 0.0
2018-Jul-08 15:28N 70°45' E 023°26'0 0.0
2018-Jul-08 14:58N 70°45' E 023°26'  
Track history (hours):
 
Tides and Currents Weather Stations Pressure Air Temp Water Temp Dewpoint Dewpoint Depression Visibility Wind Speed Wind Dir Waves Ship Positions

Strilborg

Last reported at 2018-Jul-18 14:30 UTC. Time now 2018-Jul-18 14:40 UTC.
Position N 69°27' E 018°07'.

Length 75 m; draft 5.5 m.

Type: Tug. MMSI: 259469000.

Date/timePositionNaut miles runAvg speedWind from/ knotsBaromVisibWave heightAir tempDewpointWater temp
2018-Jul-18 14:30N 69°27' E 018°07'6 6.1
2018-Jul-18 13:30N 69°30' E 018°21'3 6.3
2018-Jul-18 13:00N 69°32' E 018°29'4 7.0
2018-Jul-18 12:30N 69°33' E 018°39'3 6.5
2018-Jul-18 12:00N 69°34' E 018°47'4 8.1
2018-Jul-18 11:30N 69°38' E 018°53'7 7.6
2018-Jul-18 10:30N 69°44' E 019°02'4 7.6
2018-Jul-18 10:00N 69°47' E 019°11'4 8.0
2018-Jul-18 09:30N 69°48' E 019°22'4 7.8
2018-Jul-18 09:00N 69°49' E 019°32'5 9.3
2018-Jul-18 08:30N 69°50' E 019°46'2 4.8
2018-Jul-18 08:00N 69°50' E 019°52'0 0.9
2018-Jul-18 07:30N 69°51' E 019°52'0 0.3
2018-Jul-18 07:00N 69°51' E 019°52'1 1.5
2018-Jul-18 06:30N 69°51' E 019°54'1 1.0
2018-Jul-18 05:59N 69°50' E 019°53'0 0.8
2018-Jul-18 05:29N 69°50' E 019°52'3 5.2
2018-Jul-18 05:00N 69°52' E 019°56'3 6.4
2018-Jul-18 04:30N 69°55' E 020°02'3 6.4
2018-Jul-18 04:00N 69°57' E 020°09'3 6.2
2018-Jul-18 03:30N 69°59' E 020°16'3 6.7
2018-Jul-18 03:01N 69°60' E 020°25'3 6.4
2018-Jul-18 02:30N 70°01' E 020°34'4 7.4
2018-Jul-18 02:00N 70°02' E 020°44'4 7.5
2018-Jul-18 01:30N 70°04' E 020°54'4 7.7
2018-Jul-18 01:00N 70°07' E 021°00'4 8.3
2018-Jul-18 00:29N 70°11' E 021°05'4 8.1
2018-Jul-18 00:00N 70°14' E 021°11'4 8.3
2018-Jul-17 23:30N 70°17' E 021°21'4 8.1
2018-Jul-17 23:00N 70°20' E 021°30'4 8.0
2018-Jul-17 22:30N 70°23' E 021°38'4 7.1
2018-Jul-17 22:00N 70°23' E 021°49'4 8.2
2018-Jul-17 21:30N 70°21' E 021°59'4 8.1
2018-Jul-17 20:59N 70°19' E 022°10'4 8.4
2018-Jul-17 20:30N 70°17' E 022°20'4 8.1
2018-Jul-17 20:00N 70°16' E 022°32'4 8.1
2018-Jul-17 19:30N 70°14' E 022°43'4 8.3
2018-Jul-17 18:59N 70°14' E 022°55'4 8.0
2018-Jul-17 18:28N 70°15' E 023°07'4 8.1
2018-Jul-17 18:00N 70°17' E 023°17'3 5.8
2018-Jul-17 17:29N 70°19' E 023°23'2 5.1
2018-Jul-17 17:00N 70°21' E 023°28'2 3.2
2018-Jul-17 16:30N 70°22' E 023°30'4 8.2
2018-Jul-17 16:00N 70°26' E 023°38'4 7.4
2018-Jul-17 15:30N 70°29' E 023°41'4 8.1
2018-Jul-17 14:59N 70°33' E 023°38'4 8.3
2018-Jul-17 14:30N 70°37' E 023°36'3 6.6
2018-Jul-17 14:00N 70°40' E 023°41'0 0.0
2018-Jul-17 13:30N 70°40' E 023°41'0 0.0
2018-Jul-17 13:00N 70°40' E 023°41'0 0.0
2018-Jul-17 12:30N 70°40' E 023°41'0 0.0
2018-Jul-17 11:59N 70°40' E 023°41'0 0.0
2018-Jul-17 11:30N 70°40' E 023°41'0 0.1
2018-Jul-17 11:00N 70°40' E 023°41'3 6.0
2018-Jul-17 10:30N 70°41' E 023°32'4 8.1
2018-Jul-17 09:58N 70°45' E 023°26'0 0.0
2018-Jul-17 09:28N 70°45' E 023°26'0 0.0
2018-Jul-17 08:58N 70°45' E 023°26'0 0.0
2018-Jul-17 08:28N 70°45' E 023°26'0 0.1
2018-Jul-17 07:58N 70°45' E 023°26'0 0.1
2018-Jul-17 07:28N 70°45' E 023°26'0 0.0
2018-Jul-17 06:58N 70°45' E 023°26'0 0.0
2018-Jul-17 06:28N 70°45' E 023°26'0 0.0
2018-Jul-17 05:58N 70°45' E 023°26'0 0.0
2018-Jul-17 05:28N 70°45' E 023°26'0 0.0
2018-Jul-17 04:58N 70°45' E 023°26'0 0.0
2018-Jul-17 04:28N 70°45' E 023°26'0 0.0
2018-Jul-17 03:58N 70°45' E 023°26'0 0.0
2018-Jul-17 03:28N 70°45' E 023°26'0 0.0
2018-Jul-17 02:58N 70°45' E 023°26'0 0.0
2018-Jul-17 02:28N 70°45' E 023°26'0 0.0
2018-Jul-17 01:58N 70°45' E 023°26'0 0.0
2018-Jul-17 01:28N 70°45' E 023°26'0 0.0
2018-Jul-17 00:58N 70°45' E 023°26'0 0.0
2018-Jul-17 00:28N 70°45' E 023°26'0 0.0
2018-Jul-16 23:28N 70°45' E 023°26'0 0.0
2018-Jul-16 22:58N 70°45' E 023°26'0 0.0
2018-Jul-16 22:28N 70°45' E 023°26'0 0.0
2018-Jul-16 21:58N 70°45' E 023°26'0 0.0
2018-Jul-16 21:28N 70°45' E 023°26'0 0.0
2018-Jul-16 20:58N 70°45' E 023°26'0 0.0
2018-Jul-16 20:28N 70°45' E 023°26'0 0.0
2018-Jul-16 19:58N 70°45' E 023°26'0 0.0
2018-Jul-16 19:28N 70°45' E 023°26'0 0.1
2018-Jul-16 19:00N 70°45' E 023°26'0 0.0
2018-Jul-16 18:30N 70°45' E 023°26'3 6.4
2018-Jul-16 18:00N 70°47' E 023°34'4 8.7
2018-Jul-16 17:30N 70°49' E 023°45'4 8.2
2018-Jul-16 17:01N 70°51' E 023°55'4 7.5
2018-Jul-16 16:30N 70°53' E 024°05'3 6.5
2018-Jul-16 16:00N 70°55' E 024°13'4 7.3
2018-Jul-16 15:30N 70°58' E 024°20'4 7.6
2018-Jul-16 15:00N 71°01' E 024°29'3 6.4
2018-Jul-16 14:31N 71°01' E 024°38'4 6.9
2018-Jul-16 14:00N 71°00' E 024°49'4 7.5
2018-Jul-16 13:30N 70°59' E 024°60'4 8.0
2018-Jul-16 13:01N 70°60' E 025°12'4 7.4
2018-Jul-16 12:30N 70°59' E 025°23'4 7.3
2018-Jul-16 12:00N 70°56' E 025°31'4 8.0
2018-Jul-16 11:30N 70°55' E 025°43'1 1.9
2018-Jul-16 10:58N 70°54' E 025°44'0 0.0
2018-Jul-16 10:31N 70°54' E 025°44'0 0.1
2018-Jul-16 10:01N 70°54' E 025°44'0 0.0
2018-Jul-16 09:30N 70°54' E 025°44'0 0.0
2018-Jul-16 09:00N 70°54' E 025°44'0 0.0
2018-Jul-16 08:30N 70°54' E 025°44'0 0.0
2018-Jul-16 08:00N 70°54' E 025°44'0 0.0
2018-Jul-16 07:30N 70°54' E 025°44'0 0.0
2018-Jul-16 07:00N 70°54' E 025°44'0 0.1
2018-Jul-16 06:30N 70°54' E 025°44'0 0.0
2018-Jul-16 06:00N 70°54' E 025°44'0 0.0
2018-Jul-16 05:30N 70°54' E 025°44'0 0.0
2018-Jul-16 05:00N 70°54' E 025°44'0 0.0
2018-Jul-16 04:30N 70°54' E 025°44'0 0.0
2018-Jul-16 04:00N 70°54' E 025°44'0 0.0
2018-Jul-16 03:30N 70°54' E 025°44'0 0.0
2018-Jul-16 03:00N 70°54' E 025°44'0 0.0
2018-Jul-16 02:30N 70°54' E 025°44'0 0.0
2018-Jul-16 02:00N 70°54' E 025°44'0 0.0
2018-Jul-16 01:30N 70°54' E 025°44'0 0.1
2018-Jul-16 01:00N 70°54' E 025°44'0 0.0
2018-Jul-16 00:30N 70°54' E 025°44'0 0.1
2018-Jul-15 23:57N 70°54' E 025°44'0 0.0
2018-Jul-15 23:30N 70°54' E 025°44'0 0.0
2018-Jul-15 23:00N 70°54' E 025°44'0 0.0
2018-Jul-15 22:30N 70°54' E 025°44'0 0.0
2018-Jul-15 22:00N 70°54' E 025°44'0 0.0
2018-Jul-15 21:30N 70°54' E 025°44'0 0.0
2018-Jul-15 21:00N 70°54' E 025°44'0 0.0
2018-Jul-15 20:30N 70°54' E 025°44'0 0.0
2018-Jul-15 20:00N 70°54' E 025°44'0 0.0
2018-Jul-15 19:30N 70°54' E 025°44'0 0.0
2018-Jul-15 19:00N 70°54' E 025°44'0 0.0
2018-Jul-15 18:30N 70°54' E 025°44'0 0.0
2018-Jul-15 18:00N 70°54' E 025°44'0 0.0
2018-Jul-15 17:30N 70°54' E 025°44'0 0.0
2018-Jul-15 17:00N 70°54' E 025°44'0 0.0
2018-Jul-15 16:30N 70°54' E 025°44'0 0.0
2018-Jul-15 16:00N 70°54' E 025°44'0 0.0
2018-Jul-15 15:30N 70°54' E 025°44'0 0.0
2018-Jul-15 15:00N 70°54' E 025°44'0 0.0
2018-Jul-15 14:30N 70°54' E 025°44'0 0.0
2018-Jul-15 14:00N 70°54' E 025°44'0 0.0
2018-Jul-15 13:30N 70°54' E 025°44'0 0.0
2018-Jul-15 13:00N 70°54' E 025°44'0 0.0
2018-Jul-15 12:30N 70°54' E 025°44'0 0.0
2018-Jul-15 12:00N 70°54' E 025°44'0 0.0
2018-Jul-15 11:30N 70°54' E 025°44'0 0.0
2018-Jul-15 11:00N 70°54' E 025°44'0 0.0
2018-Jul-15 10:30N 70°54' E 025°44'0 0.0
2018-Jul-15 10:00N 70°54' E 025°44'0 0.0
2018-Jul-15 09:30N 70°54' E 025°44'0 0.0
2018-Jul-15 09:00N 70°54' E 025°44'0 0.0
2018-Jul-15 08:30N 70°54' E 025°44'0 0.0
2018-Jul-15 08:00N 70°54' E 025°44'0 0.0
2018-Jul-15 07:30N 70°54' E 025°44'0 0.0
2018-Jul-15 07:00N 70°54' E 025°44'0 0.0
2018-Jul-15 06:30N 70°54' E 025°44'0 0.0
2018-Jul-15 06:00N 70°54' E 025°44'0 0.0
2018-Jul-15 05:30N 70°54' E 025°44'0 0.0
2018-Jul-15 05:00N 70°54' E 025°44'0 0.0
2018-Jul-15 04:30N 70°54' E 025°44'0 0.0
2018-Jul-15 04:00N 70°54' E 025°44'0 0.0
2018-Jul-15 03:30N 70°54' E 025°44'0 0.0
2018-Jul-15 02:59N 70°54' E 025°44'0 0.0
2018-Jul-15 02:29N 70°54' E 025°44'0 0.0
2018-Jul-15 01:59N 70°54' E 025°44'0 0.0
2018-Jul-15 01:29N 70°54' E 025°44'0 0.0
2018-Jul-15 00:59N 70°54' E 025°44'0 0.0
2018-Jul-15 00:29N 70°54' E 025°44'0 0.0
2018-Jul-14 23:59N 70°54' E 025°44'0 0.0
2018-Jul-14 23:29N 70°54' E 025°44'0 0.0
2018-Jul-14 22:59N 70°54' E 025°44'0 0.0
2018-Jul-14 22:29N 70°54' E 025°44'0 0.0
2018-Jul-14 21:59N 70°54' E 025°44'0 0.0
2018-Jul-14 21:29N 70°54' E 025°44'0 0.0
2018-Jul-14 20:59N 70°54' E 025°44'0 0.0
2018-Jul-14 20:29N 70°54' E 025°44'0 0.0
2018-Jul-14 19:59N 70°54' E 025°44'0 0.0
2018-Jul-14 19:29N 70°54' E 025°44'0 0.0
2018-Jul-14 18:59N 70°54' E 025°44'0 0.0
2018-Jul-14 18:29N 70°54' E 025°44'0 0.0
2018-Jul-14 17:59N 70°54' E 025°44'0 0.0
2018-Jul-14 17:29N 70°54' E 025°44'0 0.0
2018-Jul-14 16:59N 70°54' E 025°44'0 0.0
2018-Jul-14 16:29N 70°54' E 025°44'0 0.0
2018-Jul-14 15:59N 70°54' E 025°44'0 0.0
2018-Jul-14 15:29N 70°54' E 025°44'0 0.0
2018-Jul-14 14:59N 70°54' E 025°44'0 0.0
2018-Jul-14 14:29N 70°54' E 025°44'0 0.1
2018-Jul-14 13:29N 70°54' E 025°44'0 0.0
2018-Jul-14 12:59N 70°54' E 025°44'0 0.0
2018-Jul-14 12:29N 70°54' E 025°44'0 0.0
2018-Jul-14 11:59N 70°54' E 025°44'0 0.0
2018-Jul-14 11:29N 70°54' E 025°44'0 0.0
2018-Jul-14 10:59N 70°54' E 025°44'0 0.0
2018-Jul-14 10:29N 70°54' E 025°44'0 0.0
2018-Jul-14 09:59N 70°54' E 025°44'0 0.0
2018-Jul-14 09:29N 70°54' E 025°44'0 0.0
2018-Jul-14 08:59N 70°54' E 025°44'0 0.0
2018-Jul-14 08:29N 70°54' E 025°44'0 0.0
2018-Jul-14 07:59N 70°54' E 025°44'0 0.0
2018-Jul-14 07:29N 70°54' E 025°44'0 0.0
2018-Jul-14 06:59N 70°54' E 025°44'0 0.0
2018-Jul-14 06:29N 70°54' E 025°44'0 0.0
2018-Jul-14 05:59N 70°54' E 025°44'0 0.0
2018-Jul-14 05:29N 70°54' E 025°44'0 0.0
2018-Jul-14 04:59N 70°54' E 025°44'0 0.1
2018-Jul-14 04:29N 70°54' E 025°44'0 0.0
2018-Jul-14 03:59N 70°54' E 025°44'0 0.0
2018-Jul-14 03:29N 70°54' E 025°44'0 0.0
2018-Jul-14 02:59N 70°54' E 025°44'0 0.0
2018-Jul-14 02:29N 70°54' E 025°44'0 0.0
2018-Jul-14 01:59N 70°54' E 025°44'0 0.0
2018-Jul-14 01:29N 70°54' E 025°44'0 0.0
2018-Jul-14 00:59N 70°54' E 025°44'0 0.0
2018-Jul-14 00:29N 70°54' E 025°44'0 0.0
2018-Jul-13 23:59N 70°54' E 025°44'0 0.0
2018-Jul-13 23:29N 70°54' E 025°44'0 0.0
2018-Jul-13 22:59N 70°54' E 025°44'0 0.0
2018-Jul-13 22:29N 70°54' E 025°44'0 0.0
2018-Jul-13 21:59N 70°54' E 025°44'0 0.0
2018-Jul-13 21:29N 70°54' E 025°44'0 0.0
2018-Jul-13 20:59N 70°54' E 025°44'0 0.0
2018-Jul-13 20:28N 70°54' E 025°44'0 0.0
2018-Jul-13 19:58N 70°54' E 025°44'0 0.0
2018-Jul-13 19:28N 70°54' E 025°44'0 0.0
2018-Jul-13 18:58N 70°54' E 025°44'0 0.0
2018-Jul-13 18:28N 70°54' E 025°44'0 0.0
2018-Jul-13 17:58N 70°54' E 025°44'0 0.0
2018-Jul-13 17:28N 70°54' E 025°44'0 0.0
2018-Jul-13 16:58N 70°54' E 025°44'0 0.0
2018-Jul-13 16:28N 70°54' E 025°44'0 0.0
2018-Jul-13 15:58N 70°54' E 025°44'0 0.7
2018-Jul-13 15:30N 70°54' E 025°45'5 9.2
2018-Jul-13 14:59N 70°57' E 025°56'9 8.9
2018-Jul-13 13:59N 71°03' E 026°15'5 9.8
2018-Jul-13 13:30N 71°08' E 026°14'0 0.8
2018-Jul-13 12:58N 71°08' E 026°13'0 0.3
2018-Jul-13 12:30N 71°08' E 026°13'0 0.0
2018-Jul-13 12:00N 71°08' E 026°13'0 0.5
2018-Jul-13 11:29N 71°08' E 026°14'0 0.6
2018-Jul-13 11:00N 71°08' E 026°14'0 0.7
2018-Jul-13 10:30N 71°08' E 026°13'0 0.6
2018-Jul-13 10:00N 71°08' E 026°14'0 0.1
2018-Jul-13 09:29N 71°08' E 026°14'0 0.8
2018-Jul-13 09:00N 71°08' E 026°15'0 0.8
2018-Jul-13 08:30N 71°08' E 026°14'0 0.1
2018-Jul-13 08:00N 71°08' E 026°13'2 4.7
2018-Jul-13 07:30N 71°09' E 026°06'3 6.2
2018-Jul-13 07:00N 71°09' E 025°57'2 4.7
2018-Jul-13 06:30N 71°07' E 025°52'0 0.0
2018-Jul-13 06:00N 71°07' E 025°52'0 0.0
2018-Jul-13 05:30N 71°07' E 025°52'0 0.0
2018-Jul-13 05:00N 71°07' E 025°52'0 0.0
2018-Jul-13 04:29N 71°07' E 025°52'0 0.0
2018-Jul-13 04:00N 71°07' E 025°52'0 0.0
2018-Jul-13 03:28N 71°07' E 025°52'0 0.0
2018-Jul-13 02:58N 71°07' E 025°52'0 0.0
2018-Jul-13 02:30N 71°07' E 025°52'0 0.0
2018-Jul-13 01:59N 71°07' E 025°52'0 0.0
2018-Jul-13 01:30N 71°07' E 025°52'0 0.0
2018-Jul-13 01:00N 71°07' E 025°52'0 0.0
2018-Jul-13 00:30N 71°07' E 025°52'0 0.0
2018-Jul-13 00:00N 71°07' E 025°52'0 0.0
2018-Jul-12 23:30N 71°07' E 025°52'0 0.0
2018-Jul-12 23:00N 71°07' E 025°52'0 0.0
2018-Jul-12 22:30N 71°07' E 025°52'0 0.0
2018-Jul-12 22:00N 71°07' E 025°52'0 0.0
2018-Jul-12 21:29N 71°07' E 025°52'1 1.6
2018-Jul-12 20:59N 71°08' E 025°53'4 8.4
2018-Jul-12 20:30N 71°11' E 025°48'4 8.4
2018-Jul-12 20:00N 71°14' E 025°39'4 8.0
2018-Jul-12 19:30N 71°17' E 025°30'4 8.4
2018-Jul-12 19:00N 71°19' E 025°19'4 8.5
2018-Jul-12 18:30N 71°21' E 025°07'4 7.5
2018-Jul-12 17:59N 71°19' E 024°57'4 8.9
2018-Jul-12 17:30N 71°15' E 024°50'4 9.0
2018-Jul-12 17:00N 71°11' E 024°43'4 8.6
2018-Jul-12 16:29N 71°08' E 024°35'4 8.6
2018-Jul-12 15:59N 71°04' E 024°29'4 8.6
2018-Jul-12 15:30N 71°00' E 024°23'4 8.4
2018-Jul-12 15:00N 70°57' E 024°16'4 8.9
2018-Jul-12 14:31N 70°54' E 024°07'4 8.6
2018-Jul-12 14:01N 70°51' E 023°57'4 8.3
2018-Jul-12 13:31N 70°48' E 023°47'5 8.6
2018-Jul-12 12:59N 70°45' E 023°37'4 9.2
2018-Jul-12 12:30N 70°40' E 023°33'3 6.9
2018-Jul-12 12:00N 70°37' E 023°38'0 0.3
2018-Jul-12 11:28N 70°38' E 023°38'0 0.0
2018-Jul-12 10:58N 70°38' E 023°38'0 0.0
2018-Jul-12 10:28N 70°38' E 023°38'0 0.0
2018-Jul-12 09:58N 70°38' E 023°38'0 0.0
2018-Jul-12 09:28N 70°38' E 023°38'0 0.0
2018-Jul-12 08:58N 70°38' E 023°38'0 0.0
2018-Jul-12 08:28N 70°38' E 023°38'0 0.0
2018-Jul-12 07:58N 70°38' E 023°38'0 0.0
2018-Jul-12 07:28N 70°38' E 023°38'0 0.0
2018-Jul-12 06:58N 70°38' E 023°38'0 0.0
2018-Jul-12 06:28N 70°38' E 023°38'0 0.0
2018-Jul-12 05:58N 70°38' E 023°38'0 0.0
2018-Jul-12 05:28N 70°38' E 023°38'0 0.0
2018-Jul-12 04:58N 70°38' E 023°38'0 0.0
2018-Jul-12 04:28N 70°38' E 023°38'0 0.0
2018-Jul-12 03:58N 70°38' E 023°38'0 0.0
2018-Jul-12 03:28N 70°38' E 023°38'0 0.0
2018-Jul-12 02:58N 70°38' E 023°38'0 0.0
2018-Jul-12 02:28N 70°38' E 023°38'0 0.0
2018-Jul-12 01:58N 70°38' E 023°38'0 0.0
2018-Jul-12 01:28N 70°38' E 023°38'0 0.0
2018-Jul-12 00:58N 70°38' E 023°38'0 0.0
2018-Jul-12 00:28N 70°38' E 023°38'0 0.0
2018-Jul-11 23:58N 70°38' E 023°38'0 0.0
2018-Jul-11 23:28N 70°38' E 023°38'0 0.0
2018-Jul-11 22:58N 70°38' E 023°38'0 0.0
2018-Jul-11 22:28N 70°38' E 023°38'0 0.0
2018-Jul-11 22:01N 70°38' E 023°38'0 0.0
2018-Jul-11 21:30N 70°38' E 023°38'0 0.0
2018-Jul-11 21:00N 70°38' E 023°38'0 0.0
2018-Jul-11 20:30N 70°38' E 023°38'0 0.0
2018-Jul-11 20:00N 70°38' E 023°38'0 0.0
2018-Jul-11 19:30N 70°38' E 023°38'0 0.0
2018-Jul-11 19:00N 70°38' E 023°38'0 0.0
2018-Jul-11 18:30N 70°38' E 023°38'0 0.0
2018-Jul-11 18:00N 70°38' E 023°38'0 0.0
2018-Jul-11 17:30N 70°38' E 023°38'0 0.0
2018-Jul-11 17:00N 70°38' E 023°38'0 0.0
2018-Jul-11 16:30N 70°38' E 023°38'0 0.0
2018-Jul-11 16:00N 70°38' E 023°38'3 6.6
2018-Jul-11 15:30N 70°34' E 023°37'2 3.1
2018-Jul-11 14:58N 70°33' E 023°38'1 1.4
2018-Jul-11 14:30N 70°32' E 023°38'1 1.2
2018-Jul-11 14:00N 70°33' E 023°38'1 2.0
2018-Jul-11 13:30N 70°34' E 023°37'1 1.3
2018-Jul-11 13:00N 70°33' E 023°37'1 1.9
2018-Jul-11 12:30N 70°32' E 023°38'1 1.3
2018-Jul-11 12:00N 70°32' E 023°38'1 1.6
2018-Jul-11 11:30N 70°31' E 023°39'1 2.0
2018-Jul-11 11:00N 70°30' E 023°41'1 2.0
2018-Jul-11 10:30N 70°29' E 023°42'1 1.3
2018-Jul-11 10:00N 70°28' E 023°42'1 2.3
2018-Jul-11 09:29N 70°30' E 023°41'1 1.8
2018-Jul-11 08:59N 70°30' E 023°40'1 1.5
2018-Jul-11 08:30N 70°31' E 023°39'1 2.0
2018-Jul-11 08:00N 70°32' E 023°39'1 2.8
2018-Jul-11 07:30N 70°33' E 023°38'1 1.7
2018-Jul-11 07:00N 70°34' E 023°37'2 4.8
2018-Jul-11 06:30N 70°36' E 023°35'2 3.0
2018-Jul-11 06:00N 70°38' E 023°38'0 0.0
2018-Jul-11 05:30N 70°38' E 023°38'0 0.0
2018-Jul-11 05:00N 70°38' E 023°38'0 0.0
2018-Jul-11 04:30N 70°38' E 023°38'0 0.0
2018-Jul-11 04:00N 70°38' E 023°38'0 0.0
2018-Jul-11 03:30N 70°38' E 023°38'0 0.0
2018-Jul-11 03:00N 70°38' E 023°38'0 0.0
2018-Jul-11 02:30N 70°38' E 023°38'0 0.0
2018-Jul-11 02:00N 70°38' E 023°38'0 0.0
2018-Jul-11 01:30N 70°38' E 023°38'0 0.0
2018-Jul-11 01:00N 70°38' E 023°38'0 0.0
2018-Jul-11 00:30N 70°38' E 023°38'0 0.0
2018-Jul-11 00:00N 70°38' E 023°38'0 0.0
2018-Jul-10 23:30N 70°38' E 023°38'0 0.0
2018-Jul-10 23:00N 70°38' E 023°38'0 0.0
2018-Jul-10 22:30N 70°38' E 023°38'0 0.0
2018-Jul-10 21:59N 70°38' E 023°38'0 0.0
2018-Jul-10 21:29N 70°38' E 023°38'0 0.0
2018-Jul-10 20:59N 70°38' E 023°38'0 0.0
2018-Jul-10 20:29N 70°38' E 023°38'0 0.0
2018-Jul-10 19:59N 70°38' E 023°38'0 0.0
2018-Jul-10 19:29N 70°38' E 023°38'0 0.0
2018-Jul-10 18:59N 70°38' E 023°38'0 0.0
2018-Jul-10 18:29N 70°38' E 023°38'0 0.0
2018-Jul-10 17:59N 70°38' E 023°38'0 0.0
2018-Jul-10 17:29N 70°38' E 023°38'0 0.0
2018-Jul-10 16:59N 70°38' E 023°38'0 0.0
2018-Jul-10 16:29N 70°38' E 023°38'0 0.0
2018-Jul-10 15:59N 70°38' E 023°38'0 0.0
2018-Jul-10 15:29N 70°38' E 023°38'0 0.0
2018-Jul-10 14:59N 70°38' E 023°38'0 0.0
2018-Jul-10 14:29N 70°38' E 023°38'0 0.0
2018-Jul-10 13:59N 70°38' E 023°38'0 0.0
2018-Jul-10 13:29N 70°38' E 023°38'0 0.0
2018-Jul-10 12:59N 70°38' E 023°38'3 5.2
2018-Jul-10 12:31N 70°35' E 023°37'3 6.5
2018-Jul-10 12:00N 70°32' E 023°40'1 1.9
2018-Jul-10 11:30N 70°33' E 023°39'1 1.2
2018-Jul-10 11:00N 70°34' E 023°38'1 1.8
2018-Jul-10 10:30N 70°34' E 023°37'0 0.4
2018-Jul-10 09:59N 70°35' E 023°37'3 6.3
2018-Jul-10 09:30N 70°38' E 023°38'0 0.0
2018-Jul-10 09:00N 70°38' E 023°38'0 0.0
2018-Jul-10 08:30N 70°38' E 023°38'0 0.0
2018-Jul-10 08:00N 70°38' E 023°38'0 0.0
2018-Jul-10 07:30N 70°38' E 023°38'0 0.0
2018-Jul-10 07:00N 70°38' E 023°38'0 0.0
2018-Jul-10 06:30N 70°38' E 023°38'0 0.0
2018-Jul-10 06:00N 70°38' E 023°38'0 0.0
2018-Jul-10 05:30N 70°38' E 023°38'0 0.0
2018-Jul-10 05:00N 70°38' E 023°38'0 0.0
2018-Jul-10 04:30N 70°38' E 023°38'0 0.0
2018-Jul-10 04:00N 70°38' E 023°38'0 0.0
2018-Jul-10 03:30N 70°38' E 023°38'0 0.0
2018-Jul-10 03:00N 70°38' E 023°38'0 0.0
2018-Jul-10 02:30N 70°38' E 023°38'0 0.0
2018-Jul-10 02:00N 70°38' E 023°38'0 0.0
2018-Jul-10 01:30N 70°38' E 023°38'0 0.0
2018-Jul-10 01:00N 70°38' E 023°38'0 0.0
2018-Jul-10 00:30N 70°38' E 023°38'0 0.0
2018-Jul-10 00:00N 70°38' E 023°38'0 0.0
2018-Jul-09 23:30N 70°38' E 023°38'0 0.0
2018-Jul-09 23:00N 70°38' E 023°38'0 0.0
2018-Jul-09 22:30N 70°38' E 023°38'0 0.0
2018-Jul-09 22:00N 70°38' E 023°38'0 0.0
2018-Jul-09 21:30N 70°38' E 023°38'0 0.0
2018-Jul-09 21:00N 70°38' E 023°38'0 0.0
2018-Jul-09 20:30N 70°38' E 023°38'0 0.0
2018-Jul-09 20:00N 70°38' E 023°38'0 0.0
2018-Jul-09 19:30N 70°38' E 023°38'0 0.0
2018-Jul-09 19:00N 70°38' E 023°38'0 0.0
2018-Jul-09 18:30N 70°38' E 023°38'0 0.0
2018-Jul-09 18:00N 70°38' E 023°38'0 0.0
2018-Jul-09 17:30N 70°38' E 023°38'0 0.0
2018-Jul-09 17:00N 70°38' E 023°38'0 0.0
2018-Jul-09 16:30N 70°38' E 023°38'1 1.6
2018-Jul-09 16:00N 70°37' E 023°37'5 9.8
2018-Jul-09 15:30N 70°41' E 023°30'4 7.2
2018-Jul-09 14:59N 70°45' E 023°26'0 0.0
2018-Jul-09 14:29N 70°45' E 023°26'0 0.0
2018-Jul-09 13:59N 70°45' E 023°26'0 0.0
2018-Jul-09 13:29N 70°45' E 023°26'0 0.0
2018-Jul-09 12:59N 70°45' E 023°26'0 0.0
2018-Jul-09 12:29N 70°45' E 023°26'0 0.0
2018-Jul-09 11:59N 70°45' E 023°26'0 0.0
2018-Jul-09 11:29N 70°45' E 023°26'0 0.0
2018-Jul-09 10:59N 70°45' E 023°26'0 0.0
2018-Jul-09 10:29N 70°45' E 023°26'0 0.0
2018-Jul-09 09:59N 70°45' E 023°26'0 0.0
2018-Jul-09 09:29N 70°45' E 023°26'0 0.0
2018-Jul-09 08:59N 70°45' E 023°26'0 0.0
2018-Jul-09 08:29N 70°45' E 023°26'0 0.0
2018-Jul-09 07:59N 70°45' E 023°26'0 0.0
2018-Jul-09 07:29N 70°45' E 023°26'0 0.0
2018-Jul-09 06:59N 70°45' E 023°26'0 0.0
2018-Jul-09 06:29N 70°45' E 023°26'0 0.0
2018-Jul-09 05:59N 70°45' E 023°26'0 0.0
2018-Jul-09 05:29N 70°45' E 023°26'0 0.0
2018-Jul-09 04:59N 70°45' E 023°26'0 0.0
2018-Jul-09 04:29N 70°45' E 023°26'0 0.0
2018-Jul-09 03:59N 70°45' E 023°26'0 0.0
2018-Jul-09 03:29N 70°45' E 023°26'0 0.0
2018-Jul-09 02:59N 70°45' E 023°26'0 0.0
2018-Jul-09 02:28N 70°45' E 023°26'0 0.0
2018-Jul-09 01:58N 70°45' E 023°26'0 0.0
2018-Jul-09 01:28N 70°45' E 023°26'0 0.1
2018-Jul-09 00:58N 70°45' E 023°26'0 0.0
2018-Jul-09 00:28N 70°45' E 023°26'0 0.0
2018-Jul-08 23:58N 70°45' E 023°26'0 0.0
2018-Jul-08 23:28N 70°45' E 023°26'0 0.0
2018-Jul-08 22:58N 70°45' E 023°26'0 0.0
2018-Jul-08 22:28N 70°45' E 023°26'0 0.0
2018-Jul-08 21:58N 70°45' E 023°26'0 0.0
2018-Jul-08 21:28N 70°45' E 023°26'0 0.0
2018-Jul-08 20:58N 70°45' E 023°26'0 0.0
2018-Jul-08 20:28N 70°45' E 023°26'0 0.0
2018-Jul-08 19:58N 70°45' E 023°26'0 0.0
2018-Jul-08 19:28N 70°45' E 023°26'0 0.0
2018-Jul-08 18:58N 70°45' E 023°26'0 0.0
2018-Jul-08 18:28N 70°45' E 023°26'0 0.0
2018-Jul-08 17:58N 70°45' E 023°26'0 0.0
2018-Jul-08 17:25N 70°45' E 023°26'0 0.0
2018-Jul-08 16:58N 70°45' E 023°26'0 0.0
2018-Jul-08 16:28N 70°45' E 023°26'0 0.0
2018-Jul-08 15:58N 70°45' E 023°26'0 0.0
2018-Jul-08 15:28N 70°45' E 023°26'0 0.0
2018-Jul-08 14:58N 70°45' E 023°26'  

Dump ship's entire track history